sensor_id;sensor_type;location;lat;lon;timestamp;P1;durP1;ratioP1;P2;durP2;ratioP2
12956;SDS011;6543;48.836;10.092;2024-01-30T00:01:05;21.40;;;13.53;;
12956;SDS011;6543;48.836;10.092;2024-01-30T00:03:32;21.00;;;13.40;;
12956;SDS011;6543;48.836;10.092;2024-01-30T00:06:00;26.07;;;13.97;;
12956;SDS011;6543;48.836;10.092;2024-01-30T00:08:29;19.50;;;12.63;;
12956;SDS011;6543;48.836;10.092;2024-01-30T00:10:56;19.63;;;12.87;;
12956;SDS011;6543;48.836;10.092;2024-01-30T00:13:23;19.57;;;12.80;;
12956;SDS011;6543;48.836;10.092;2024-01-30T00:15:49;18.17;;;12.50;;
12956;SDS011;6543;48.836;10.092;2024-01-30T00:18:16;17.97;;;12.03;;
12956;SDS011;6543;48.836;10.092;2024-01-30T00:20:43;18.67;;;11.17;;
12956;SDS011;6543;48.836;10.092;2024-01-30T00:23:12;19.13;;;12.10;;
12956;SDS011;6543;48.836;10.092;2024-01-30T00:25:39;15.50;;;10.33;;
12956;SDS011;6543;48.836;10.092;2024-01-30T00:28:06;18.60;;;11.33;;
12956;SDS011;6543;48.836;10.092;2024-01-30T00:30:33;18.57;;;11.00;;
12956;SDS011;6543;48.836;10.092;2024-01-30T00:33:00;18.27;;;11.80;;
12956;SDS011;6543;48.836;10.092;2024-01-30T00:35:26;16.23;;;12.00;;
12956;SDS011;6543;48.836;10.092;2024-01-30T00:37:54;18.37;;;12.90;;
12956;SDS011;6543;48.836;10.092;2024-01-30T00:40:22;16.67;;;11.33;;
12956;SDS011;6543;48.836;10.092;2024-01-30T00:42:49;17.97;;;12.47;;
12956;SDS011;6543;48.836;10.092;2024-01-30T00:45:16;19.83;;;12.73;;
12956;SDS011;6543;48.836;10.092;2024-01-30T00:47:43;20.10;;;13.13;;
12956;SDS011;6543;48.836;10.092;2024-01-30T00:50:10;22.03;;;13.43;;
12956;SDS011;6543;48.836;10.092;2024-01-30T00:52:37;22.73;;;13.27;;
12956;SDS011;6543;48.836;10.092;2024-01-30T00:55:06;21.57;;;13.93;;
12956;SDS011;6543;48.836;10.092;2024-01-30T00:57:35;20.10;;;12.73;;
12956;SDS011;6543;48.836;10.092;2024-01-30T01:00:01;19.07;;;12.27;;
12956;SDS011;6543;48.836;10.092;2024-01-30T01:02:31;15.70;;;10.37;;
12956;SDS011;6543;48.836;10.092;2024-01-30T01:04:58;19.40;;;9.83;;
12956;SDS011;6543;48.836;10.092;2024-01-30T01:07:25;13.67;;;9.70;;
12956;SDS011;6543;48.836;10.092;2024-01-30T01:09:51;18.50;;;12.07;;
12956;SDS011;6543;48.836;10.092;2024-01-30T01:12:18;12.93;;;9.57;;
12956;SDS011;6543;48.836;10.092;2024-01-30T01:14:46;23.17;;;12.77;;
12956;SDS011;6543;48.836;10.092;2024-01-30T01:17:13;21.73;;;12.23;;
12956;SDS011;6543;48.836;10.092;2024-01-30T01:19:40;16.87;;;11.63;;
12956;SDS011;6543;48.836;10.092;2024-01-30T01:22:07;22.90;;;12.17;;
12956;SDS011;6543;48.836;10.092;2024-01-30T01:24:34;21.63;;;12.83;;
12956;SDS011;6543;48.836;10.092;2024-01-30T01:27:01;19.77;;;12.50;;
12956;SDS011;6543;48.836;10.092;2024-01-30T01:29:29;23.77;;;13.50;;
12956;SDS011;6543;48.836;10.092;2024-01-30T01:31:57;20.93;;;13.13;;
12956;SDS011;6543;48.836;10.092;2024-01-30T01:34:24;22.97;;;13.50;;
12956;SDS011;6543;48.836;10.092;2024-01-30T01:36:51;18.40;;;12.47;;
12956;SDS011;6543;48.836;10.092;2024-01-30T01:39:20;16.93;;;11.30;;
12956;SDS011;6543;48.836;10.092;2024-01-30T01:41:49;17.93;;;12.30;;
12956;SDS011;6543;48.836;10.092;2024-01-30T01:44:16;20.07;;;12.57;;
12956;SDS011;6543;48.836;10.092;2024-01-30T01:46:44;24.07;;;13.00;;
12956;SDS011;6543;48.836;10.092;2024-01-30T01:49:12;16.37;;;11.23;;
12956;SDS011;6543;48.836;10.092;2024-01-30T01:51:40;18.27;;;11.60;;
12956;SDS011;6543;48.836;10.092;2024-01-30T01:54:09;18.17;;;11.23;;
12956;SDS011;6543;48.836;10.092;2024-01-30T01:56:37;17.30;;;11.17;;
12956;SDS011;6543;48.836;10.092;2024-01-30T01:59:05;16.93;;;10.97;;
12956;SDS011;6543;48.836;10.092;2024-01-30T02:01:34;22.50;;;10.73;;
12956;SDS011;6543;48.836;10.092;2024-01-30T02:04:02;16.33;;;9.97;;
12956;SDS011;6543;48.836;10.092;2024-01-30T02:06:31;16.80;;;10.53;;
12956;SDS011;6543;48.836;10.092;2024-01-30T02:08:58;17.53;;;9.73;;
12956;SDS011;6543;48.836;10.092;2024-01-30T02:11:25;14.53;;;9.37;;
12956;SDS011;6543;48.836;10.092;2024-01-30T02:13:52;12.37;;;8.30;;
12956;SDS011;6543;48.836;10.092;2024-01-30T02:16:19;14.03;;;9.13;;
12956;SDS011;6543;48.836;10.092;2024-01-30T02:18:46;15.17;;;8.53;;
12956;SDS011;6543;48.836;10.092;2024-01-30T02:21:15;14.27;;;8.63;;
12956;SDS011;6543;48.836;10.092;2024-01-30T02:23:43;16.87;;;8.90;;
12956;SDS011;6543;48.836;10.092;2024-01-30T02:26:10;16.97;;;9.83;;
12956;SDS011;6543;48.836;10.092;2024-01-30T02:28:38;16.03;;;9.27;;
12956;SDS011;6543;48.836;10.092;2024-01-30T02:31:04;16.40;;;9.17;;
12956;SDS011;6543;48.836;10.092;2024-01-30T02:33:30;16.33;;;9.73;;
12956;SDS011;6543;48.836;10.092;2024-01-30T02:35:57;17.33;;;10.60;;
12956;SDS011;6543;48.836;10.092;2024-01-30T02:38:26;18.37;;;10.30;;
12956;SDS011;6543;48.836;10.092;2024-01-30T02:40:53;16.40;;;10.53;;
12956;SDS011;6543;48.836;10.092;2024-01-30T02:43:21;16.23;;;10.77;;
12956;SDS011;6543;48.836;10.092;2024-01-30T02:45:49;18.30;;;10.10;;
12956;SDS011;6543;48.836;10.092;2024-01-30T02:48:16;19.30;;;9.67;;
12956;SDS011;6543;48.836;10.092;2024-01-30T02:50:43;14.67;;;10.03;;
12956;SDS011;6543;48.836;10.092;2024-01-30T02:53:11;14.13;;;9.27;;
12956;SDS011;6543;48.836;10.092;2024-01-30T02:55:39;11.77;;;8.03;;
12956;SDS011;6543;48.836;10.092;2024-01-30T02:58:06;12.67;;;7.83;;
12956;SDS011;6543;48.836;10.092;2024-01-30T03:00:32;11.27;;;7.47;;
12956;SDS011;6543;48.836;10.092;2024-01-30T03:02:59;11.77;;;7.57;;
12956;SDS011;6543;48.836;10.092;2024-01-30T03:05:27;13.90;;;7.83;;
12956;SDS011;6543;48.836;10.092;2024-01-30T03:07:53;13.67;;;8.43;;
12956;SDS011;6543;48.836;10.092;2024-01-30T03:10:20;14.87;;;8.47;;
12956;SDS011;6543;48.836;10.092;2024-01-30T03:12:49;14.63;;;9.30;;
12956;SDS011;6543;48.836;10.092;2024-01-30T03:15:15;14.27;;;10.13;;
12956;SDS011;6543;48.836;10.092;2024-01-30T03:17:42;13.03;;;8.57;;
12956;SDS011;6543;48.836;10.092;2024-01-30T03:20:10;18.37;;;9.83;;
12956;SDS011;6543;48.836;10.092;2024-01-30T03:22:37;16.07;;;10.07;;
12956;SDS011;6543;48.836;10.092;2024-01-30T03:25:04;19.03;;;11.13;;
12956;SDS011;6543;48.836;10.092;2024-01-30T03:27:31;24.50;;;11.37;;
12956;SDS011;6543;48.836;10.092;2024-01-30T03:29:59;17.33;;;10.63;;
12956;SDS011;6543;48.836;10.092;2024-01-30T03:32:26;17.93;;;10.70;;
12956;SDS011;6543;48.836;10.092;2024-01-30T03:34:53;18.30;;;10.10;;
12956;SDS011;6543;48.836;10.092;2024-01-30T03:37:20;14.97;;;9.53;;
12956;SDS011;6543;48.836;10.092;2024-01-30T03:39:47;14.47;;;10.13;;
12956;SDS011;6543;48.836;10.092;2024-01-30T03:42:14;17.07;;;10.53;;
12956;SDS011;6543;48.836;10.092;2024-01-30T03:44:41;17.77;;;10.77;;
12956;SDS011;6543;48.836;10.092;2024-01-30T03:47:10;15.90;;;10.60;;
12956;SDS011;6543;48.836;10.092;2024-01-30T03:49:37;18.03;;;11.47;;
12956;SDS011;6543;48.836;10.092;2024-01-30T03:52:03;17.90;;;9.57;;
12956;SDS011;6543;48.836;10.092;2024-01-30T03:54:30;12.20;;;8.83;;
12956;SDS011;6543;48.836;10.092;2024-01-30T03:56:57;16.23;;;9.47;;
12956;SDS011;6543;48.836;10.092;2024-01-30T03:59:24;15.77;;;10.13;;
12956;SDS011;6543;48.836;10.092;2024-01-30T04:01:51;20.97;;;10.33;;
12956;SDS011;6543;48.836;10.092;2024-01-30T04:04:19;15.13;;;9.93;;
12956;SDS011;6543;48.836;10.092;2024-01-30T04:06:46;16.93;;;9.77;;
12956;SDS011;6543;48.836;10.092;2024-01-30T04:09:13;17.40;;;9.30;;
12956;SDS011;6543;48.836;10.092;2024-01-30T04:11:40;20.07;;;10.60;;
12956;SDS011;6543;48.836;10.092;2024-01-30T04:14:07;17.73;;;9.47;;
12956;SDS011;6543;48.836;10.092;2024-01-30T04:16:34;12.83;;;9.23;;
12956;SDS011;6543;48.836;10.092;2024-01-30T04:19:01;14.47;;;9.47;;
12956;SDS011;6543;48.836;10.092;2024-01-30T04:21:29;15.17;;;9.07;;
12956;SDS011;6543;48.836;10.092;2024-01-30T04:23:56;14.60;;;9.30;;
12956;SDS011;6543;48.836;10.092;2024-01-30T04:26:23;20.50;;;9.70;;
12956;SDS011;6543;48.836;10.092;2024-01-30T04:28:49;16.93;;;11.07;;
12956;SDS011;6543;48.836;10.092;2024-01-30T04:31:16;20.03;;;11.73;;
12956;SDS011;6543;48.836;10.092;2024-01-30T04:33:43;19.60;;;9.83;;
12956;SDS011;6543;48.836;10.092;2024-01-30T04:36:10;18.33;;;9.43;;
12956;SDS011;6543;48.836;10.092;2024-01-30T04:38:38;17.07;;;10.07;;
12956;SDS011;6543;48.836;10.092;2024-01-30T04:41:05;14.63;;;9.13;;
12956;SDS011;6543;48.836;10.092;2024-01-30T04:43:32;18.17;;;9.90;;
12956;SDS011;6543;48.836;10.092;2024-01-30T04:45:58;12.57;;;9.33;;
12956;SDS011;6543;48.836;10.092;2024-01-30T04:48:25;15.63;;;9.37;;
12956;SDS011;6543;48.836;10.092;2024-01-30T04:50:52;15.13;;;9.83;;
12956;SDS011;6543;48.836;10.092;2024-01-30T04:53:19;21.90;;;10.60;;
12956;SDS011;6543;48.836;10.092;2024-01-30T04:55:47;17.73;;;11.10;;
12956;SDS011;6543;48.836;10.092;2024-01-30T04:58:14;17.53;;;10.17;;
12956;SDS011;6543;48.836;10.092;2024-01-30T05:00:41;15.60;;;10.47;;
12956;SDS011;6543;48.836;10.092;2024-01-30T05:03:08;18.20;;;10.63;;
12956;SDS011;6543;48.836;10.092;2024-01-30T05:05:34;16.30;;;9.93;;
12956;SDS011;6543;48.836;10.092;2024-01-30T05:08:01;15.90;;;10.63;;
12956;SDS011;6543;48.836;10.092;2024-01-30T05:10:28;20.07;;;10.73;;
12956;SDS011;6543;48.836;10.092;2024-01-30T05:12:56;18.87;;;11.43;;
12956;SDS011;6543;48.836;10.092;2024-01-30T05:15:23;19.87;;;10.90;;
12956;SDS011;6543;48.836;10.092;2024-01-30T05:17:50;23.87;;;10.77;;
12956;SDS011;6543;48.836;10.092;2024-01-30T05:20:16;15.77;;;11.00;;
12956;SDS011;6543;48.836;10.092;2024-01-30T05:22:43;19.47;;;11.37;;
12956;SDS011;6543;48.836;10.092;2024-01-30T05:25:11;16.30;;;9.83;;
12956;SDS011;6543;48.836;10.092;2024-01-30T05:27:38;19.27;;;10.20;;
12956;SDS011;6543;48.836;10.092;2024-01-30T05:30:07;15.83;;;9.93;;
12956;SDS011;6543;48.836;10.092;2024-01-30T05:32:34;16.97;;;10.37;;
12956;SDS011;6543;48.836;10.092;2024-01-30T05:35:01;16.43;;;9.93;;
12956;SDS011;6543;48.836;10.092;2024-01-30T05:37:28;17.13;;;10.53;;
12956;SDS011;6543;48.836;10.092;2024-01-30T05:39:55;19.33;;;10.10;;
12956;SDS011;6543;48.836;10.092;2024-01-30T05:42:22;14.90;;;9.70;;
12956;SDS011;6543;48.836;10.092;2024-01-30T05:44:49;20.07;;;9.90;;
12956;SDS011;6543;48.836;10.092;2024-01-30T05:47:18;19.30;;;10.60;;
12956;SDS011;6543;48.836;10.092;2024-01-30T05:49:45;21.60;;;11.63;;
12956;SDS011;6543;48.836;10.092;2024-01-30T05:52:11;21.67;;;10.40;;
12956;SDS011;6543;48.836;10.092;2024-01-30T05:54:40;15.47;;;10.57;;
12956;SDS011;6543;48.836;10.092;2024-01-30T05:57:07;17.50;;;12.73;;
12956;SDS011;6543;48.836;10.092;2024-01-30T05:59:34;18.43;;;12.77;;
12956;SDS011;6543;48.836;10.092;2024-01-30T06:02:01;18.37;;;11.60;;
12956;SDS011;6543;48.836;10.092;2024-01-30T06:04:29;20.23;;;11.93;;
12956;SDS011;6543;48.836;10.092;2024-01-30T06:06:56;20.23;;;11.77;;
12956;SDS011;6543;48.836;10.092;2024-01-30T06:09:23;19.63;;;12.43;;
12956;SDS011;6543;48.836;10.092;2024-01-30T06:11:49;18.03;;;11.57;;
12956;SDS011;6543;48.836;10.092;2024-01-30T06:14:16;17.27;;;10.83;;
12956;SDS011;6543;48.836;10.092;2024-01-30T06:16:43;18.40;;;10.30;;
12956;SDS011;6543;48.836;10.092;2024-01-30T06:19:10;20.97;;;11.17;;
12956;SDS011;6543;48.836;10.092;2024-01-30T06:21:38;15.63;;;10.93;;
12956;SDS011;6543;48.836;10.092;2024-01-30T06:24:05;18.80;;;11.17;;
12956;SDS011;6543;48.836;10.092;2024-01-30T06:26:32;19.10;;;11.53;;
12956;SDS011;6543;48.836;10.092;2024-01-30T06:29:00;18.60;;;11.87;;
12956;SDS011;6543;48.836;10.092;2024-01-30T06:31:27;19.20;;;11.63;;
12956;SDS011;6543;48.836;10.092;2024-01-30T06:33:54;19.17;;;10.97;;
12956;SDS011;6543;48.836;10.092;2024-01-30T06:36:20;22.33;;;11.07;;
12956;SDS011;6543;48.836;10.092;2024-01-30T06:38:48;24.53;;;11.17;;
12956;SDS011;6543;48.836;10.092;2024-01-30T06:41:15;23.37;;;12.07;;
12956;SDS011;6543;48.836;10.092;2024-01-30T06:43:42;18.20;;;11.23;;
12956;SDS011;6543;48.836;10.092;2024-01-30T06:46:10;20.57;;;10.67;;
12956;SDS011;6543;48.836;10.092;2024-01-30T06:48:38;18.83;;;12.57;;
12956;SDS011;6543;48.836;10.092;2024-01-30T06:51:05;22.30;;;10.80;;
12956;SDS011;6543;48.836;10.092;2024-01-30T06:53:32;17.83;;;11.17;;
12956;SDS011;6543;48.836;10.092;2024-01-30T06:56:01;16.17;;;10.20;;
12956;SDS011;6543;48.836;10.092;2024-01-30T06:58:28;18.17;;;11.40;;
12956;SDS011;6543;48.836;10.092;2024-01-30T07:00:55;26.07;;;12.60;;
12956;SDS011;6543;48.836;10.092;2024-01-30T07:03:22;18.43;;;10.87;;
12956;SDS011;6543;48.836;10.092;2024-01-30T07:05:49;19.57;;;11.97;;
12956;SDS011;6543;48.836;10.092;2024-01-30T07:08:16;18.17;;;11.53;;
12956;SDS011;6543;48.836;10.092;2024-01-30T07:10:43;22.67;;;12.47;;
12956;SDS011;6543;48.836;10.092;2024-01-30T07:13:12;18.37;;;11.83;;
12956;SDS011;6543;48.836;10.092;2024-01-30T07:15:41;18.20;;;11.90;;
12956;SDS011;6543;48.836;10.092;2024-01-30T07:18:08;21.83;;;11.87;;
12956;SDS011;6543;48.836;10.092;2024-01-30T07:20:35;23.23;;;12.33;;
12956;SDS011;6543;48.836;10.092;2024-01-30T07:23:03;19.47;;;12.93;;
12956;SDS011;6543;48.836;10.092;2024-01-30T07:25:30;27.13;;;15.80;;
12956;SDS011;6543;48.836;10.092;2024-01-30T07:28:01;30.13;;;14.17;;
12956;SDS011;6543;48.836;10.092;2024-01-30T07:30:30;19.93;;;13.13;;
12956;SDS011;6543;48.836;10.092;2024-01-30T07:32:57;20.23;;;11.80;;
12956;SDS011;6543;48.836;10.092;2024-01-30T07:35:24;22.33;;;12.60;;
12956;SDS011;6543;48.836;10.092;2024-01-30T07:37:50;17.07;;;11.10;;
12956;SDS011;6543;48.836;10.092;2024-01-30T07:40:17;20.80;;;11.70;;
12956;SDS011;6543;48.836;10.092;2024-01-30T07:42:44;26.17;;;10.40;;
12956;SDS011;6543;48.836;10.092;2024-01-30T07:45:11;21.67;;;11.00;;
12956;SDS011;6543;48.836;10.092;2024-01-30T07:47:39;17.13;;;11.63;;
12956;SDS011;6543;48.836;10.092;2024-01-30T07:50:07;19.67;;;10.97;;
12956;SDS011;6543;48.836;10.092;2024-01-30T07:52:34;14.27;;;9.57;;
12956;SDS011;6543;48.836;10.092;2024-01-30T07:55:02;15.53;;;10.17;;
12956;SDS011;6543;48.836;10.092;2024-01-30T07:57:30;17.87;;;10.40;;
12956;SDS011;6543;48.836;10.092;2024-01-30T07:59:57;14.60;;;9.80;;
12956;SDS011;6543;48.836;10.092;2024-01-30T08:02:32;12.87;;;9.20;;
12956;SDS011;6543;48.836;10.092;2024-01-30T08:05:01;19.20;;;9.53;;
12956;SDS011;6543;48.836;10.092;2024-01-30T08:07:28;16.47;;;9.90;;
12956;SDS011;6543;48.836;10.092;2024-01-30T08:09:55;16.80;;;9.83;;
12956;SDS011;6543;48.836;10.092;2024-01-30T08:12:22;15.57;;;9.00;;
12956;SDS011;6543;48.836;10.092;2024-01-30T08:14:49;15.90;;;9.10;;
12956;SDS011;6543;48.836;10.092;2024-01-30T08:17:16;16.47;;;9.40;;
12956;SDS011;6543;48.836;10.092;2024-01-30T08:19:46;13.23;;;8.40;;
12956;SDS011;6543;48.836;10.092;2024-01-30T08:22:14;15.67;;;9.50;;
12956;SDS011;6543;48.836;10.092;2024-01-30T08:24:41;17.13;;;8.60;;
12956;SDS011;6543;48.836;10.092;2024-01-30T08:27:08;16.97;;;9.20;;
12956;SDS011;6543;48.836;10.092;2024-01-30T08:29:35;16.47;;;9.73;;
12956;SDS011;6543;48.836;10.092;2024-01-30T08:32:02;14.47;;;9.17;;
12956;SDS011;6543;48.836;10.092;2024-01-30T08:34:30;18.47;;;9.40;;
12956;SDS011;6543;48.836;10.092;2024-01-30T08:36:57;22.57;;;9.60;;
12956;SDS011;6543;48.836;10.092;2024-01-30T08:39:25;12.17;;;9.17;;
12956;SDS011;6543;48.836;10.092;2024-01-30T08:41:52;23.30;;;10.83;;
12956;SDS011;6543;48.836;10.092;2024-01-30T08:44:20;19.23;;;10.57;;
12956;SDS011;6543;48.836;10.092;2024-01-30T08:46:47;22.27;;;10.87;;
12956;SDS011;6543;48.836;10.092;2024-01-30T08:49:15;25.07;;;11.00;;
12956;SDS011;6543;48.836;10.092;2024-01-30T08:51:43;22.57;;;11.20;;
12956;SDS011;6543;48.836;10.092;2024-01-30T08:54:09;16.43;;;10.80;;
12956;SDS011;6543;48.836;10.092;2024-01-30T08:56:37;19.33;;;10.47;;
12956;SDS011;6543;48.836;10.092;2024-01-30T08:59:04;28.07;;;10.67;;
12956;SDS011;6543;48.836;10.092;2024-01-30T09:01:31;21.67;;;11.17;;
12956;SDS011;6543;48.836;10.092;2024-01-30T09:03:58;18.70;;;11.50;;
12956;SDS011;6543;48.836;10.092;2024-01-30T09:06:25;23.10;;;11.83;;
12956;SDS011;6543;48.836;10.092;2024-01-30T09:08:57;24.30;;;11.93;;
12956;SDS011;6543;48.836;10.092;2024-01-30T09:11:24;23.70;;;12.13;;
12956;SDS011;6543;48.836;10.092;2024-01-30T09:13:52;23.50;;;14.00;;
12956;SDS011;6543;48.836;10.092;2024-01-30T09:16:19;23.73;;;14.43;;
12956;SDS011;6543;48.836;10.092;2024-01-30T09:18:45;20.30;;;13.17;;
12956;SDS011;6543;48.836;10.092;2024-01-30T09:21:12;25.73;;;13.17;;
12956;SDS011;6543;48.836;10.092;2024-01-30T09:23:39;21.90;;;13.13;;
12956;SDS011;6543;48.836;10.092;2024-01-30T09:26:06;21.43;;;13.27;;
12956;SDS011;6543;48.836;10.092;2024-01-30T09:28:33;23.23;;;14.40;;
12956;SDS011;6543;48.836;10.092;2024-01-30T09:31:01;29.67;;;15.30;;
12956;SDS011;6543;48.836;10.092;2024-01-30T09:33:28;35.03;;;14.13;;
12956;SDS011;6543;48.836;10.092;2024-01-30T09:35:55;21.73;;;13.87;;
12956;SDS011;6543;48.836;10.092;2024-01-30T09:38:22;24.27;;;14.50;;
12956;SDS011;6543;48.836;10.092;2024-01-30T09:40:50;32.93;;;13.77;;
12956;SDS011;6543;48.836;10.092;2024-01-30T09:43:21;24.80;;;15.13;;
12956;SDS011;6543;48.836;10.092;2024-01-30T09:45:50;22.83;;;13.93;;
12956;SDS011;6543;48.836;10.092;2024-01-30T09:48:18;22.53;;;12.60;;
12956;SDS011;6543;48.836;10.092;2024-01-30T09:50:45;25.30;;;12.83;;
12956;SDS011;6543;48.836;10.092;2024-01-30T09:53:13;21.93;;;13.93;;
12956;SDS011;6543;48.836;10.092;2024-01-30T09:55:40;29.53;;;14.27;;
12956;SDS011;6543;48.836;10.092;2024-01-30T09:58:11;28.30;;;16.03;;
12956;SDS011;6543;48.836;10.092;2024-01-30T10:00:38;20.43;;;14.30;;
12956;SDS011;6543;48.836;10.092;2024-01-30T10:03:05;23.17;;;14.67;;
12956;SDS011;6543;48.836;10.092;2024-01-30T10:05:33;23.73;;;12.47;;
12956;SDS011;6543;48.836;10.092;2024-01-30T10:08:05;23.20;;;11.97;;
12956;SDS011;6543;48.836;10.092;2024-01-30T10:10:33;24.10;;;12.53;;
12956;SDS011;6543;48.836;10.092;2024-01-30T10:13:00;20.87;;;11.73;;
12956;SDS011;6543;48.836;10.092;2024-01-30T10:15:28;21.33;;;11.63;;
12956;SDS011;6543;48.836;10.092;2024-01-30T10:17:55;18.63;;;12.63;;
12956;SDS011;6543;48.836;10.092;2024-01-30T10:20:21;19.90;;;14.00;;
12956;SDS011;6543;48.836;10.092;2024-01-30T10:22:52;22.23;;;14.17;;
12956;SDS011;6543;48.836;10.092;2024-01-30T10:25:19;28.27;;;14.67;;
12956;SDS011;6543;48.836;10.092;2024-01-30T10:27:52;30.30;;;16.07;;
12956;SDS011;6543;48.836;10.092;2024-01-30T10:30:20;24.70;;;16.33;;
12956;SDS011;6543;48.836;10.092;2024-01-30T10:32:47;27.93;;;17.53;;
12956;SDS011;6543;48.836;10.092;2024-01-30T10:35:14;26.13;;;16.80;;
12956;SDS011;6543;48.836;10.092;2024-01-30T10:37:41;26.77;;;16.93;;
12956;SDS011;6543;48.836;10.092;2024-01-30T10:40:12;28.67;;;17.00;;
12956;SDS011;6543;48.836;10.092;2024-01-30T10:42:42;23.33;;;16.23;;
12956;SDS011;6543;48.836;10.092;2024-01-30T10:45:10;27.27;;;16.07;;
12956;SDS011;6543;48.836;10.092;2024-01-30T10:47:39;24.27;;;16.87;;
12956;SDS011;6543;48.836;10.092;2024-01-30T10:50:07;29.53;;;15.83;;
12956;SDS011;6543;48.836;10.092;2024-01-30T10:52:35;26.00;;;16.73;;
12956;SDS011;6543;48.836;10.092;2024-01-30T10:55:04;28.80;;;15.93;;
12956;SDS011;6543;48.836;10.092;2024-01-30T10:57:34;30.50;;;16.53;;
12956;SDS011;6543;48.836;10.092;2024-01-30T11:00:03;26.47;;;16.17;;
12956;SDS011;6543;48.836;10.092;2024-01-30T11:02:35;22.70;;;13.00;;
12956;SDS011;6543;48.836;10.092;2024-01-30T11:05:04;29.23;;;14.30;;
12956;SDS011;6543;48.836;10.092;2024-01-30T11:07:32;24.23;;;13.03;;
12956;SDS011;6543;48.836;10.092;2024-01-30T11:10:00;17.57;;;11.53;;
12956;SDS011;6543;48.836;10.092;2024-01-30T11:12:28;22.07;;;13.40;;
12956;SDS011;6543;48.836;10.092;2024-01-30T11:15:04;18.13;;;11.43;;
12956;SDS011;6543;48.836;10.092;2024-01-30T11:17:49;12.83;;;9.10;;
12956;SDS011;6543;48.836;10.092;2024-01-30T11:20:19;19.17;;;9.90;;
12956;SDS011;6543;48.836;10.092;2024-01-30T11:22:50;16.37;;;10.50;;
12956;SDS011;6543;48.836;10.092;2024-01-30T11:25:19;22.53;;;10.03;;
12956;SDS011;6543;48.836;10.092;2024-01-30T11:27:46;17.90;;;10.40;;
12956;SDS011;6543;48.836;10.092;2024-01-30T11:30:24;16.17;;;8.73;;
12956;SDS011;6543;48.836;10.092;2024-01-30T11:32:58;8.17;;;4.70;;
12956;SDS011;6543;48.836;10.092;2024-01-30T11:35:31;4.30;;;2.47;;
12956;SDS011;6543;48.836;10.092;2024-01-30T11:37:59;5.10;;;2.43;;
12956;SDS011;6543;48.836;10.092;2024-01-30T11:40:27;2.50;;;1.73;;
12956;SDS011;6543;48.836;10.092;2024-01-30T11:42:55;2.40;;;1.90;;
12956;SDS011;6543;48.836;10.092;2024-01-30T11:45:22;3.03;;;2.00;;
12956;SDS011;6543;48.836;10.092;2024-01-30T11:47:50;4.70;;;2.07;;
12956;SDS011;6543;48.836;10.092;2024-01-30T11:50:17;6.77;;;2.10;;
12956;SDS011;6543;48.836;10.092;2024-01-30T11:52:44;2.10;;;1.60;;
12956;SDS011;6543;48.836;10.092;2024-01-30T11:55:11;2.67;;;1.83;;
12956;SDS011;6543;48.836;10.092;2024-01-30T11:57:40;1.87;;;1.57;;
12956;SDS011;6543;48.836;10.092;2024-01-30T12:00:13;2.07;;;1.40;;
12956;SDS011;6543;48.836;10.092;2024-01-30T12:02:41;3.13;;;1.97;;
12956;SDS011;6543;48.836;10.092;2024-01-30T12:05:11;3.00;;;1.90;;
12956;SDS011;6543;48.836;10.092;2024-01-30T12:07:40;5.57;;;2.40;;
12956;SDS011;6543;48.836;10.092;2024-01-30T12:10:25;3.50;;;2.07;;
12956;SDS011;6543;48.836;10.092;2024-01-30T12:12:53;3.73;;;2.60;;
12956;SDS011;6543;48.836;10.092;2024-01-30T12:15:21;3.67;;;2.37;;
12956;SDS011;6543;48.836;10.092;2024-01-30T12:17:48;2.73;;;1.97;;
12956;SDS011;6543;48.836;10.092;2024-01-30T12:20:17;2.87;;;2.13;;
12956;SDS011;6543;48.836;10.092;2024-01-30T12:22:47;3.90;;;2.10;;
12956;SDS011;6543;48.836;10.092;2024-01-30T12:25:29;4.97;;;1.80;;
12956;SDS011;6543;48.836;10.092;2024-01-30T12:27:58;4.57;;;2.40;;
12956;SDS011;6543;48.836;10.092;2024-01-30T12:30:25;2.60;;;1.70;;
12956;SDS011;6543;48.836;10.092;2024-01-30T12:32:54;2.83;;;2.00;;
12956;SDS011;6543;48.836;10.092;2024-01-30T12:35:23;2.50;;;1.87;;
12956;SDS011;6543;48.836;10.092;2024-01-30T12:37:50;2.97;;;2.03;;
12956;SDS011;6543;48.836;10.092;2024-01-30T12:40:17;4.73;;;2.17;;
12956;SDS011;6543;48.836;10.092;2024-01-30T12:42:46;7.50;;;2.90;;
12956;SDS011;6543;48.836;10.092;2024-01-30T12:45:14;3.63;;;2.17;;
12956;SDS011;6543;48.836;10.092;2024-01-30T12:47:45;5.73;;;2.93;;
12956;SDS011;6543;48.836;10.092;2024-01-30T12:50:12;5.20;;;2.00;;
12956;SDS011;6543;48.836;10.092;2024-01-30T12:52:42;3.20;;;1.60;;
12956;SDS011;6543;48.836;10.092;2024-01-30T12:55:09;2.67;;;2.13;;
12956;SDS011;6543;48.836;10.092;2024-01-30T12:57:36;3.07;;;1.70;;
12956;SDS011;6543;48.836;10.092;2024-01-30T13:00:05;3.77;;;2.07;;
12956;SDS011;6543;48.836;10.092;2024-01-30T13:02:33;3.37;;;2.10;;
12956;SDS011;6543;48.836;10.092;2024-01-30T13:05:02;3.57;;;1.97;;
12956;SDS011;6543;48.836;10.092;2024-01-30T13:07:29;7.93;;;2.30;;
12956;SDS011;6543;48.836;10.092;2024-01-30T13:09:57;8.60;;;2.37;;
12956;SDS011;6543;48.836;10.092;2024-01-30T13:12:28;7.33;;;2.23;;
12956;SDS011;6543;48.836;10.092;2024-01-30T13:14:55;10.33;;;2.40;;
12956;SDS011;6543;48.836;10.092;2024-01-30T13:17:21;9.30;;;2.77;;
12956;SDS011;6543;48.836;10.092;2024-01-30T13:19:48;4.93;;;2.80;;
12956;SDS011;6543;48.836;10.092;2024-01-30T13:22:15;6.93;;;2.43;;
12956;SDS011;6543;48.836;10.092;2024-01-30T13:24:42;7.73;;;2.40;;
12956;SDS011;6543;48.836;10.092;2024-01-30T13:27:10;6.63;;;2.40;;
12956;SDS011;6543;48.836;10.092;2024-01-30T13:29:37;5.10;;;2.70;;
12956;SDS011;6543;48.836;10.092;2024-01-30T13:32:04;9.03;;;2.77;;
12956;SDS011;6543;48.836;10.092;2024-01-30T13:34:32;12.03;;;2.50;;
12956;SDS011;6543;48.836;10.092;2024-01-30T13:36:59;6.47;;;2.30;;
12956;SDS011;6543;48.836;10.092;2024-01-30T13:39:25;4.37;;;2.30;;
12956;SDS011;6543;48.836;10.092;2024-01-30T13:41:54;5.23;;;2.50;;
12956;SDS011;6543;48.836;10.092;2024-01-30T13:44:22;4.70;;;2.33;;
12956;SDS011;6543;48.836;10.092;2024-01-30T13:46:49;10.33;;;2.63;;
12956;SDS011;6543;48.836;10.092;2024-01-30T13:49:16;3.13;;;2.53;;
12956;SDS011;6543;48.836;10.092;2024-01-30T13:51:43;2.43;;;1.87;;
12956;SDS011;6543;48.836;10.092;2024-01-30T13:54:10;3.60;;;2.30;;
12956;SDS011;6543;48.836;10.092;2024-01-30T13:56:37;2.73;;;1.50;;
12956;SDS011;6543;48.836;10.092;2024-01-30T13:59:04;2.53;;;1.97;;
12956;SDS011;6543;48.836;10.092;2024-01-30T14:01:32;6.50;;;2.37;;
12956;SDS011;6543;48.836;10.092;2024-01-30T14:03:59;2.50;;;2.10;;
12956;SDS011;6543;48.836;10.092;2024-01-30T14:06:26;6.07;;;2.70;;
12956;SDS011;6543;48.836;10.092;2024-01-30T14:08:53;4.93;;;2.63;;
12956;SDS011;6543;48.836;10.092;2024-01-30T14:11:19;5.53;;;2.77;;
12956;SDS011;6543;48.836;10.092;2024-01-30T14:13:46;4.40;;;2.20;;
12956;SDS011;6543;48.836;10.092;2024-01-30T14:16:13;7.63;;;2.17;;
12956;SDS011;6543;48.836;10.092;2024-01-30T14:18:41;4.60;;;1.83;;
12956;SDS011;6543;48.836;10.092;2024-01-30T14:21:08;3.10;;;1.93;;
12956;SDS011;6543;48.836;10.092;2024-01-30T14:23:35;3.33;;;2.20;;
12956;SDS011;6543;48.836;10.092;2024-01-30T14:26:03;5.90;;;2.23;;
12956;SDS011;6543;48.836;10.092;2024-01-30T14:28:31;7.43;;;2.33;;
12956;SDS011;6543;48.836;10.092;2024-01-30T14:30:57;4.37;;;2.07;;